Rio, Wisconsin
Current Conditions -  °F | °C
As of 3:53 AM on Monday 20 Oct 2014 (Local Time) from KMSN Reporting Station
Clear Clear  
Wind Chill: 46°   Ceiling: Unl
Heat Index: 46°   Visibility: 10mi
Dew Point: 43°   Wind: 0mph
Humidity: 89%   Direction: NA
Pressure: 29.78"   Gusts: NA
Location:  43.45°N, 89.24°W
Report Text: KMSN 200853Z AUTO 00000KT 10SM CLR 08/06 A2978 RMK AO2 SLP087 T00780061 56004
Loading
Personal Weather Stations






























Interactive Weather Map
Tropical Storm Tracking
New forecast layout! Learn more

10-Day Weather Forecast

Advertisements
Track Severe Weather on mobile